Time;durP1;ratioP1;P1;durP2;ratioP2;P2;SDS_P1;SDS_P2;PMS_P1;PMS_P2;Temp;Humidity;BMP_temperature;BMP_pressure;BME280_temperature;BME280_humidity;BME280_pressure;Samples;Min_cycle;Max_cycle;Signal;HPM_P1;HPM_P2
2023/08/04 00:03:10;;;;;;;41.88;39.10;;;;;;;25.81;100.00;100424.56;4995062;28;20134;-89
2023/08/04 00:05:40;;;;;;;44.85;41.88;;;;;;;25.22;100.00;100426.69;4996467;28;20086;-84
2023/08/04 00:11:28;;;;;;;46.33;43.72;;;;;;;25.25;100.00;100432.28;4982008;28;20113;-84
2023/08/04 00:18:04;;;;;;;54.83;51.58;;;;;;;25.19;100.00;100421.88;4994834;28;20045;-90
2023/08/04 00:20:34;;;;;;;47.97;44.80;;;;;;;25.12;100.00;100430.44;4993773;28;20495;-84
2023/08/04 00:23:06;;;;;;;47.47;44.47;;;;;;;24.96;100.00;100427.28;4995530;28;20158;-84
2023/08/04 00:25:33;;;;;;;45.83;42.78;;;;;;;25.06;100.00;100423.53;4991501;28;20109;-84
2023/08/04 00:27:59;;;;;;;42.35;39.55;;;;;;;25.14;100.00;100428.22;4996087;28;20137;-90
2023/08/04 00:30:27;;;;;;;47.75;44.65;;;;;;;25.02;100.00;100430.69;5014288;28;20057;-91
2023/08/04 00:32:54;;;;;;;44.63;41.83;;;;;;;25.13;100.00;100432.88;4995292;28;20498;-84
2023/08/04 00:35:21;;;;;;;39.95;37.55;;;;;;;25.10;100.00;100430.75;4993434;28;20074;-83
2023/08/04 00:38:37;;;;;;;38.38;35.92;;;;;;;25.18;100.00;100426.50;4997950;28;20042;-91
2023/08/04 00:41:05;;;;;;;46.55;43.58;;;;;;;25.09;100.00;100431.88;4996010;28;20520;-84
2023/08/04 00:44:09;;;;;;;48.10;45.30;;;;;;;25.16;100.00;100430.66;4999969;28;20466;-90
2023/08/04 00:46:36;;;;;;;50.78;47.75;;;;;;;24.83;100.00;100430.88;5001203;28;20057;-85
2023/08/04 00:49:05;;;;;;;54.75;50.72;;;;;;;24.55;100.00;100422.84;4989430;28;20057;-84
2023/08/04 00:51:32;;;;;;;45.90;42.85;;;;;;;24.69;100.00;100425.50;4994125;28;20065;-84
2023/08/04 00:54:00;;;;;;;45.97;42.95;;;;;;;24.69;100.00;100425.50;4979828;28;20141;-83
2023/08/04 00:56:29;;;;;;;48.10;44.67;;;;;;;24.63;100.00;100418.56;4993938;28;20413;-83
2023/08/04 00:58:56;;;;;;;47.00;44.00;;;;;;;24.36;100.00;100414.03;4976753;28;20073;-90
2023/08/04 01:01:26;;;;;;;45.70;42.67;;;;;;;24.26;100.00;100419.66;4992246;28;20497;-91
2023/08/04 01:03:55;;;;;;;46.63;43.78;;;;;;;24.50;100.00;100427.56;4984719;28;20051;-83
2023/08/04 01:06:27;;;;;;;41.10;38.00;;;;;;;24.50;100.00;100411.28;4973371;28;20047;-91
2023/08/04 01:12:08;;;;;;;48.25;44.95;;;;;;;24.10;100.00;100417.28;4974704;28;19921;-90
2023/08/04 01:14:36;;;;;;;44.38;41.08;;;;;;;23.90;100.00;100413.06;4974885;28;20061;-84
2023/08/04 01:17:21;;;;;;;45.70;42.38;;;;;;;24.05;100.00;100422.00;4973481;28;20051;-90
2023/08/04 01:19:48;;;;;;;55.85;51.75;;;;;;;23.41;100.00;100424.56;4981040;28;20054;-84
2023/08/04 01:22:16;;;;;;;49.53;46.03;;;;;;;23.97;100.00;100418.91;4986395;28;20516;-90
2023/08/04 01:24:43;;;;;;;62.45;58.45;;;;;;;23.84;100.00;100419.69;4993815;28;20540;-83
2023/08/04 01:27:14;;;;;;;53.50;50.00;;;;;;;24.20;100.00;100421.66;4991358;28;20046;-84
2023/08/04 01:29:44;;;;;;;45.58;42.17;;;;;;;24.26;100.00;100425.09;4993605;28;20519;-84
2023/08/04 01:35:32;;;;;;;44.47;41.20;;;;;;;24.05;100.00;100422.78;4992994;28;20037;-84
2023/08/04 01:38:00;;;;;;;55.65;51.83;;;;;;;23.58;100.00;100427.50;4994695;28;20440;-83
2023/08/04 01:40:27;;;;;;;62.20;58.15;;;;;;;23.72;100.00;100433.78;4994810;28;20581;-83
2023/08/04 01:43:10;;;;;;;54.70;50.72;;;;;;;23.80;100.00;100429.53;4993674;28;20050;-90
2023/08/04 01:48:58;;;;;;;57.20;53.33;;;;;;;23.28;100.00;100437.78;4993509;28;20045;-83
2023/08/04 01:51:25;;;;;;;60.88;56.90;;;;;;;23.67;100.00;100439.25;4991689;28;20133;-83
2023/08/04 01:53:53;;;;;;;53.72;50.33;;;;;;;23.69;100.00;100438.94;4989661;28;20053;-82
2023/08/04 01:56:20;;;;;;;52.40;48.97;;;;;;;23.55;100.00;100452.50;5003065;28;20128;-84
2023/08/04 02:02:28;;;;;;;67.00;63.30;;;;;;;23.46;100.00;100446.16;4993872;28;20065;-90
2023/08/04 02:04:57;;;;;;;54.83;51.33;;;;;;;23.38;100.00;100444.94;4991434;28;20054;-83
2023/08/04 02:07:25;;;;;;;53.75;50.45;;;;;;;23.40;100.00;100444.66;4997584;28;20045;-83
2023/08/04 02:13:14;;;;;;;48.15;44.92;;;;;;;23.45;100.00;100452.66;4995126;28;20104;-84
2023/08/04 02:15:41;;;;;;;44.42;41.05;;;;;;;23.37;100.00;100447.94;4992877;28;20073;-83
2023/08/04 02:18:08;;;;;;;55.33;52.10;;;;;;;23.11;100.00;100444.84;4991930;28;20439;-83
2023/08/04 02:20:35;;;;;;;58.65;55.20;;;;;;;23.26;100.00;100461.66;4994727;28;20062;-83
2023/08/04 02:23:02;;;;;;;77.55;72.95;;;;;;;22.91;100.00;100452.19;4997025;28;20519;-83
2023/08/04 02:25:29;;;;;;;92.65;87.30;;;;;;;22.76;100.00;100466.75;4990963;28;20050;-83
2023/08/04 02:27:56;;;;;;;93.32;88.13;;;;;;;23.05;100.00;100463.09;4998497;28;20429;-83
2023/08/04 02:30:25;;;;;;;84.78;80.03;;;;;;;23.04;100.00;100459.56;4999233;28;20128;-84
2023/08/04 02:32:52;;;;;;;77.07;72.55;;;;;;;22.53;100.00;100470.34;4996851;28;20061;-83
2023/08/04 02:35:18;;;;;;;92.05;87.13;;;;;;;23.02;100.00;100471.81;4994500;28;20070;-83
2023/08/04 02:37:46;;;;;;;85.95;81.15;;;;;;;22.96;100.00;100465.66;4997973;28;20170;-84
2023/08/04 02:40:13;;;;;;;77.75;73.25;;;;;;;23.06;100.00;100465.53;4995504;28;20050;-84
2023/08/04 02:42:40;;;;;;;68.97;64.93;;;;;;;23.02;100.00;100464.47;4997791;28;20435;-83
2023/08/04 02:45:08;;;;;;;70.22;66.13;;;;;;;22.77;100.00;100470.25;4997099;28;20047;-84
2023/08/04 02:47:36;;;;;;;64.47;60.50;;;;;;;22.96;100.00;100476.50;4995783;28;20046;-84
2023/08/04 02:50:04;;;;;;;61.90;57.78;;;;;;;22.95;100.00;100472.19;4997936;28;20484;-83
2023/08/04 02:52:31;;;;;;;59.90;55.95;;;;;;;22.95;100.00;100469.47;4995656;28;20050;-83
2023/08/04 02:54:58;;;;;;;49.00;45.33;;;;;;;22.94;100.00;100481.41;4995716;28;20050;-84
2023/08/04 02:57:29;;;;;;;55.17;51.58;;;;;;;22.77;100.00;100476.47;4993766;28;20046;-84
2023/08/04 02:59:56;;;;;;;43.35;40.17;;;;;;;22.76;100.00;100480.28;4996885;28;20097;-83
2023/08/04 03:02:23;;;;;;;56.80;52.95;;;;;;;22.73;100.00;100480.88;4994973;28;20503;-83
2023/08/04 03:04:51;;;;;;;57.75;54.15;;;;;;;22.63;100.00;100479.13;4997851;28;20062;-84
2023/08/04 03:07:18;;;;;;;52.90;49.20;;;;;;;22.77;100.00;100481.91;4996836;28;20439;-83
2023/08/04 03:09:45;;;;;;;50.42;46.92;;;;;;;22.80;100.00;100475.09;4992778;28;20479;-84
2023/08/04 03:12:18;;;;;;;46.78;43.45;;;;;;;22.79;100.00;100478.91;4999362;28;20046;-90
2023/08/04 03:14:45;;;;;;;45.72;41.97;;;;;;;22.11;100.00;100488.94;5015270;28;20041;-90
2023/08/04 03:20:38;;;;;;;46.92;43.40;;;;;;;22.38;100.00;100479.44;5015543;28;20037;-90
2023/08/04 03:26:27;;;;;;;35.58;32.58;;;;;;;21.86;100.00;100486.53;5015545;28;20037;-90
2023/08/04 03:32:15;;;;;;;54.40;50.58;;;;;;;22.40;100.00;100499.72;5014931;28;20029;-90
2023/08/04 03:42:07;;;;;;;61.15;57.20;;;;;;;22.52;100.00;100506.63;5015332;28;20045;-89
2023/08/04 03:44:34;;;;;;;56.00;52.30;;;;;;;22.48;100.00;100505.56;5011909;28;20049;-83
2023/08/04 03:47:01;;;;;;;51.90;48.28;;;;;;;22.43;100.00;100508.34;4984114;28;20046;-83
2023/08/04 03:49:28;;;;;;;58.28;54.38;;;;;;;22.73;100.00;100512.56;4980715;28;20046;-83
2023/08/04 03:51:55;;;;;;;53.03;49.28;;;;;;;22.92;100.00;100507.16;4978261;28;20527;-83
2023/08/04 03:54:22;;;;;;;46.63;43.50;;;;;;;22.95;100.00;100499.25;4982143;28;20053;-83
2023/08/04 03:56:49;;;;;;;50.45;46.85;;;;;;;22.56;100.00;100505.72;4982858;28;20488;-83
2023/08/04 03:59:18;;;;;;;44.95;40.50;;;;;;;22.80;100.00;100513.00;4983637;28;20054;-83
2023/08/04 04:01:45;;;;;;;41.53;38.10;;;;;;;22.88;100.00;100504.22;4979871;28;20109;-83
2023/08/04 04:04:11;;;;;;;42.55;39.15;;;;;;;22.53;100.00;100517.13;4984001;28;20083;-82
2023/08/04 04:06:38;;;;;;;32.53;29.63;;;;;;;23.03;100.00;100509.44;4977642;28;20046;-83
2023/08/04 04:09:05;;;;;;;32.85;29.83;;;;;;;22.88;100.00;100512.34;4981134;28;20057;-83
2023/08/04 04:11:32;;;;;;;50.90;47.30;;;;;;;23.08;100.00;100508.53;4981206;28;20518;-83
2023/08/04 04:13:59;;;;;;;50.72;46.75;;;;;;;23.04;100.00;100505.63;4990235;28;20062;-83
2023/08/04 04:16:29;;;;;;;52.90;49.30;;;;;;;22.93;100.00;100511.44;4997972;28;20090;-83
2023/08/04 04:18:57;;;;;;;50.22;46.67;;;;;;;22.81;100.00;100509.19;4994439;28;20061;-83
2023/08/04 04:21:24;;;;;;;45.67;42.13;;;;;;;23.34;100.00;100508.16;4996422;28;20412;-83
2023/08/04 04:23:51;;;;;;;43.33;39.88;;;;;;;23.74;100.00;100504.75;4994857;28;20205;-83
2023/08/04 04:26:17;;;;;;;45.08;41.60;;;;;;;23.89;100.00;100500.16;4995015;28;20045;-83
2023/08/04 04:28:44;;;;;;;47.72;44.40;;;;;;;24.05;100.00;100506.09;4995116;28;20361;-83
2023/08/04 04:31:11;;;;;;;45.20;42.13;;;;;;;24.03;100.00;100497.47;4995710;28;20065;-83
2023/08/04 04:33:39;;;;;;;43.65;40.45;;;;;;;24.22;100.00;100492.72;4991638;28;20603;-83
2023/08/04 04:36:06;;;;;;;44.53;41.40;;;;;;;24.27;100.00;100484.50;4995849;28;20143;-83
2023/08/04 04:38:33;;;;;;;31.13;28.60;;;;;;;24.48;100.00;100498.47;4995650;28;20053;-83
2023/08/04 04:41:01;;;;;;;32.58;29.38;;;;;;;24.43;100.00;100487.72;4991699;28;20047;-83
2023/08/04 04:43:30;;;;;;;30.65;27.60;;;;;;;24.51;100.00;100487.00;4994427;28;20408;-83
2023/08/04 04:45:57;;;;;;;37.58;34.13;;;;;;;24.69;100.00;100485.25;4996604;28;20508;-83
2023/08/04 04:48:25;;;;;;;38.53;35.40;;;;;;;24.92;100.00;100497.72;4994425;28;20042;-83
2023/08/04 04:54:15;;;;;;;37.22;34.30;;;;;;;25.01;100.00;100492.38;4995114;28;20126;-83
2023/08/04 05:00:07;;;;;;;39.05;35.85;;;;;;;25.38;100.00;100498.56;4992915;28;20053;-83
2023/08/04 05:02:34;;;;;;;35.87;32.97;;;;;;;25.51;100.00;100499.63;4991953;28;20066;-83
2023/08/04 05:05:01;;;;;;;34.42;31.73;;;;;;;25.80;100.00;100493.66;4996161;28;20042;-89
2023/08/04 05:07:28;;;;;;;32.15;29.23;;;;;;;26.08;100.00;100491.56;4993549;28;20069;-84
2023/08/04 05:10:21;;;;;;;43.40;40.40;;;;;;;26.19;100.00;100494.81;4992173;28;20519;-90
2023/08/04 05:16:10;;;;;;;46.03;42.65;;;;;;;26.50;100.00;100498.25;5014433;28;20049;-90
2023/08/04 05:21:59;;;;;;;42.67;39.45;;;;;;;26.69;100.00;100500.69;5014071;28;20044;-90
2023/08/04 05:28:23;;;;;;;46.45;43.05;;;;;;;26.90;100.00;100498.13;5013885;28;20577;-89
2023/08/04 05:34:11;;;;;;;47.65;44.30;;;;;;;27.22;100.00;100498.75;5014052;28;20427;-88
2023/08/04 05:43:43;;;;;;;32.65;29.65;;;;;;;27.63;100.00;100506.38;5013909;28;20427;-90
2023/08/04 05:49:32;;;;;;;33.00;30.20;;;;;;;28.05;100.00;100520.22;5013367;28;20083;-90
2023/08/04 05:55:21;;;;;;;28.98;26.38;;;;;;;28.41;100.00;100504.44;5014530;28;20036;-88
2023/08/04 06:01:12;;;;;;;27.88;25.42;;;;;;;28.65;100.00;100509.28;5001486;28;20050;-88
2023/08/04 06:10:23;;;;;;;30.52;27.70;;;;;;;29.30;100.00;100515.97;4977665;28;20572;-89
2023/08/04 06:16:12;;;;;;;29.60;27.05;;;;;;;29.49;100.00;100515.47;4979619;28;20061;-84
2023/08/04 06:18:40;;;;;;;31.27;28.67;;;;;;;29.64;100.00;100514.84;4998309;28;20043;-84
2023/08/04 06:21:07;;;;;;;28.30;25.98;;;;;;;29.63;100.00;100510.50;4998295;28;20475;-83
2023/08/04 06:23:34;;;;;;;28.63;26.63;;;;;;;29.64;100.00;100517.56;4997748;28;20500;-84
2023/08/04 06:26:01;;;;;;;27.35;24.95;;;;;;;29.98;100.00;100522.97;4994468;28;20054;-84
2023/08/04 06:28:27;;;;;;;27.67;25.50;;;;;;;30.07;100.00;100516.22;4996124;28;20057;-83
2023/08/04 06:30:55;;;;;;;27.65;25.45;;;;;;;30.05;100.00;100512.28;4994382;28;20057;-84
2023/08/04 06:33:23;;;;;;;27.70;25.60;;;;;;;30.15;100.00;100511.00;4998037;28;20132;-89
2023/08/04 06:39:11;;;;;;;29.88;27.67;;;;;;;30.56;100.00;100510.75;4996472;28;20061;-89
2023/08/04 06:45:01;;;;;;;31.20;28.70;;;;;;;30.96;100.00;100511.91;4996595;28;20057;-90
2023/08/04 06:50:51;;;;;;;31.55;29.00;;;;;;;31.34;100.00;100514.16;4996524;28;20038;-89
2023/08/04 06:56:40;;;;;;;31.35;28.73;;;;;;;31.39;100.00;100513.91;4996315;28;20117;-89
2023/08/04 07:02:29;;;;;;;30.98;28.48;;;;;;;31.07;100.00;100512.19;4996140;28;20045;-89
2023/08/04 07:08:19;;;;;;;32.75;30.10;;;;;;;31.71;100.00;100509.25;4995193;28;20046;-89
2023/08/04 07:14:07;;;;;;;30.70;28.25;;;;;;;31.63;100.00;100503.94;4995974;28;20057;-88
2023/08/04 07:19:56;;;;;;;32.22;29.65;;;;;;;32.13;100.00;100503.19;4995734;28;20157;-89
2023/08/04 07:25:45;;;;;;;29.98;27.42;;;;;;;32.00;100.00;100506.44;4995823;28;20575;-90
2023/08/04 07:31:34;;;;;;;28.88;26.75;;;;;;;32.52;100.00;100510.78;4996089;28;20059;-89
2023/08/04 07:37:23;;;;;;;31.48;28.67;;;;;;;32.79;100.00;100501.53;4995997;28;20069;-89
2023/08/04 07:47:14;;;;;;;29.67;27.08;;;;;;;33.13;100.00;100501.03;4976027;28;20102;-88
2023/08/04 07:53:03;;;;;;;31.70;29.38;;;;;;;31.42;100.00;100504.97;4975839;28;20037;-87
2023/08/04 07:58:51;;;;;;;32.22;29.83;;;;;;;32.60;100.00;100501.53;4995467;28;20570;-88
2023/08/04 08:04:41;;;;;;;32.03;29.63;;;;;;;30.92;100.00;100495.34;4994538;28;20483;-84
2023/08/04 08:07:08;;;;;;;37.25;34.65;;;;;;;30.40;100.00;100489.88;4992169;28;20043;-84
2023/08/04 08:09:35;;;;;;;38.65;35.75;;;;;;;32.01;100.00;100486.03;4996412;28;20046;-84
2023/08/04 08:12:02;;;;;;;38.38;35.58;;;;;;;33.08;100.00;100488.38;4995696;28;20046;-84
2023/08/04 08:14:29;;;;;;;36.03;33.42;;;;;;;33.50;100.00;100477.38;4994518;28;20068;-84
2023/08/04 08:16:56;;;;;;;32.78;30.08;;;;;;;33.43;100.00;100487.44;4995709;28;20054;-84
2023/08/04 08:19:23;;;;;;;36.08;33.30;;;;;;;32.85;100.00;100483.56;4992580;28;20523;-84
2023/08/04 08:21:51;;;;;;;35.08;32.70;;;;;;;32.01;100.00;100494.28;4994592;28;20074;-84
2023/08/04 08:24:18;;;;;;;33.25;31.10;;;;;;;33.26;100.00;100486.75;4997566;28;20129;-84
2023/08/04 08:26:45;;;;;;;32.97;30.77;;;;;;;32.52;100.00;100484.06;4994671;28;20492;-84
2023/08/04 08:29:12;;;;;;;32.08;30.27;;;;;;;33.20;100.00;100479.97;4994839;28;20043;-84
2023/08/04 08:31:40;;;;;;;31.08;29.02;;;;;;;34.57;100.00;100489.25;4994509;28;20100;-84
2023/08/04 08:34:06;;;;;;;30.40;28.20;;;;;;;32.65;100.00;100484.75;4995532;28;20046;-84
2023/08/04 08:36:33;;;;;;;31.48;29.35;;;;;;;33.21;100.00;100476.03;4995354;28;20038;-88
2023/08/04 08:39:02;;;;;;;33.92;31.63;;;;;;;35.07;100.00;100481.59;4991003;28;20467;-84
2023/08/04 08:41:29;;;;;;;38.78;36.10;;;;;;;34.69;100.00;100470.88;4995708;28;20108;-84
2023/08/04 08:43:56;;;;;;;38.42;35.40;;;;;;;32.72;100.00;100476.66;5008779;28;20054;-84
2023/08/04 08:46:23;;;;;;;36.60;33.78;;;;;;;32.55;100.00;100477.06;5001707;28;20057;-84
2023/08/04 08:49:35;;;;;;;32.00;29.60;;;;;;;33.43;100.00;100479.97;5008983;28;20057;-88
2023/08/04 08:52:06;;;;;;;36.45;33.75;;;;;;;34.98;100.00;100478.31;4999835;28;20057;-84
2023/08/04 08:54:35;;;;;;;35.55;32.70;;;;;;;36.01;82.57;100485.97;4990446;28;20054;-84
2023/08/04 08:57:03;;;;;;;35.45;32.80;;;;;;;35.35;95.58;100480.28;4995174;28;20060;-84
2023/08/04 08:59:31;;;;;;;31.98;29.48;;;;;;;35.27;87.68;100482.16;4996921;28;20053;-84
2023/08/04 09:01:59;;;;;;;40.67;37.17;;;;;;;34.82;100.00;100480.47;4997949;28;20054;-84
2023/08/04 09:04:26;;;;;;;37.00;34.30;;;;;;;31.96;100.00;100480.84;4993262;28;20515;-84
2023/08/04 09:06:56;;;;;;;35.80;32.72;;;;;;;35.46;81.89;100474.84;4995475;28;20054;-84
2023/08/04 09:09:23;;;;;;;37.25;34.55;;;;;;;36.38;72.93;100474.75;4991596;28;20046;-84
2023/08/04 09:11:52;;;;;;;30.65;27.92;;;;;;;36.52;71.25;100470.47;4994634;28;20077;-84
2023/08/04 09:14:19;;;;;;;34.88;31.80;;;;;;;35.54;88.76;100468.25;4992470;28;20042;-84
2023/08/04 09:16:49;;;;;;;36.63;33.92;;;;;;;37.07;65.82;100470.28;4993601;28;20041;-84
2023/08/04 09:19:16;;;;;;;37.80;34.90;;;;;;;36.68;70.07;100457.91;4989729;28;20110;-84
2023/08/04 09:21:43;;;;;;;35.47;32.65;;;;;;;36.22;70.81;100457.66;4989061;28;20046;-84
2023/08/04 09:24:13;;;;;;;34.88;32.17;;;;;;;35.88;73.14;100449.53;4994068;28;20108;-84
2023/08/04 09:26:44;;;;;;;35.30;32.67;;;;;;;33.94;100.00;100443.84;4998259;28;20496;-84
2023/08/04 09:29:15;;;;;;;38.47;35.45;;;;;;;34.56;96.23;100437.25;4992087;28;20061;-84
2023/08/04 09:31:43;;;;;;;36.15;33.45;;;;;;;36.41;75.52;100440.78;4994248;28;20050;-85
2023/08/04 09:34:11;;;;;;;35.13;32.30;;;;;;;35.84;86.18;100431.38;4991223;28;20144;-84
2023/08/04 09:36:39;;;;;;;30.60;28.30;;;;;;;35.01;98.05;100436.16;4993642;28;20058;-84
2023/08/04 09:42:28;;;;;;;37.10;34.33;;;;;;;35.07;87.70;100429.16;4993307;28;20503;-88
2023/08/04 09:45:35;;;;;;;37.45;34.75;;;;;;;37.96;52.79;100423.22;4993556;28;20101;-88
2023/08/04 09:51:25;;;;;;;28.93;26.73;;;;;;;36.69;65.25;100418.00;4981996;28;20061;-88
2023/08/04 09:53:55;;;;;;;28.38;26.05;;;;;;;36.33;67.81;100427.31;4992163;28;20471;-84
2023/08/04 09:56:26;;;;;;;30.95;28.38;;;;;;;37.35;59.37;100416.91;4996041;28;20080;-85
2023/08/04 09:58:52;;;;;;;33.53;30.90;;;;;;;38.32;49.03;100412.00;4992700;28;20057;-88
2023/08/04 10:01:19;;;;;;;34.65;31.88;;;;;;;37.35;60.06;100417.72;4991735;28;20496;-89
2023/08/04 10:04:33;;;;;;;32.88;30.38;;;;;;;38.81;41.55;100415.72;4993277;28;20485;-89
2023/08/04 10:07:03;;;;;;;33.92;31.23;;;;;;;38.85;40.57;100413.75;4934623;29;20055;-85
2023/08/04 10:09:32;;;;;;;31.52;29.00;;;;;;;38.89;42.14;100416.50;4937206;28;20043;-85
2023/08/04 10:11:59;;;;;;;32.33;29.88;;;;;;;37.61;50.73;100412.97;4993276;28;20053;-88
2023/08/04 10:14:27;;;;;;;31.17;28.65;;;;;;;38.90;39.62;100407.75;4984341;28;20078;-84
2023/08/04 10:16:57;;;;;;;30.63;28.00;;;;;;;39.22;36.91;100412.31;4985869;28;20073;-85
2023/08/04 10:19:37;;;;;;;33.33;30.75;;;;;;;38.15;41.83;100415.63;4973793;28;20055;-88
2023/08/04 10:22:09;;;;;;;29.48;27.05;;;;;;;39.18;39.22;100397.63;4988117;28;20061;-85
2023/08/04 10:24:38;;;;;;;28.92;26.50;;;;;;;39.16;39.77;100400.84;4973305;28;20047;-88
2023/08/04 10:27:46;;;;;;;29.83;27.45;;;;;;;37.57;55.22;100399.13;4974732;28;20133;-88
2023/08/04 10:30:17;;;;;;;28.92;26.73;;;;;;;37.49;49.63;100399.53;4988790;28;20157;-88
2023/08/04 10:32:45;;;;;;;28.73;26.35;;;;;;;39.28;43.75;100405.09;4975561;28;20043;-90
2023/08/04 10:35:21;;;;;;;27.13;24.98;;;;;;;38.75;47.90;100392.38;4977869;28;20084;-89
2023/08/04 10:38:00;;;;;;;33.95;31.55;;;;;;;39.84;35.69;100403.00;4973402;28;20086;-89
2023/08/04 10:44:00;;;;;;;37.45;34.72;;;;;;;37.36;50.87;100396.34;4982513;28;20096;-83
2023/08/04 10:46:27;;;;;;;38.50;35.80;;;;;;;39.48;36.20;100385.88;4994918;28;20050;-85
2023/08/04 10:48:53;;;;;;;33.25;30.63;;;;;;;39.79;35.80;100397.94;4996915;28;20073;-85
2023/08/04 10:51:22;;;;;;;38.15;35.55;;;;;;;39.78;35.98;100384.44;4993492;28;20101;-85
2023/08/04 10:57:32;;;;;;;37.80;35.10;;;;;;;38.97;41.55;100381.16;4996164;28;20073;-88
2023/08/04 11:00:03;;;;;;;37.22;34.42;;;;;;;39.55;37.92;100387.81;4995690;28;20108;-89
2023/08/04 11:06:39;;;;;;;31.95;29.35;;;;;;;40.05;34.77;100384.50;4976663;28;20065;-88
2023/08/04 11:09:06;;;;;;;29.92;27.33;;;;;;;39.73;35.72;100377.34;4934901;28;20060;-85
2023/08/04 11:11:35;;;;;;;40.08;37.38;;;;;;;39.41;38.38;100362.97;4988185;28;20050;-89
2023/08/04 11:14:57;;;;;;;43.35;40.35;;;;;;;40.28;39.42;100376.31;4979226;28;20046;-89
2023/08/04 11:17:31;;;;;;;42.83;40.22;;;;;;;40.15;36.03;100375.25;4976249;28;20050;-89
2023/08/04 11:23:58;;;;;;;34.15;31.67;;;;;;;39.06;45.99;100373.94;4983292;28;20092;-89
2023/08/04 11:26:33;;;;;;;30.65;28.33;;;;;;;40.71;33.08;100364.59;4995897;28;20058;-90
2023/08/04 11:29:02;;;;;;;29.67;27.27;;;;;;;40.82;33.62;100364.44;4995783;28;20050;-89
2023/08/04 11:38:14;;;;;;;37.53;34.70;;;;;;;39.69;43.12;100359.09;4995259;28;20044;-87
2023/08/04 11:41:21;;;;;;;35.55;32.80;;;;;;;36.33;64.93;100367.28;4995554;28;20515;-87
2023/08/04 11:44:06;;;;;;;34.33;31.38;;;;;;;36.94;53.70;100372.97;4994852;28;20129;-89
2023/08/04 11:46:34;;;;;;;40.78;37.85;;;;;;;40.39;36.61;100358.66;4996128;28;20412;-90
2023/08/04 11:49:46;;;;;;;38.65;35.85;;;;;;;40.42;43.41;100363.41;4996614;28;20054;-89
2023/08/04 11:52:15;;;;;;;38.08;35.08;;;;;;;41.11;33.03;100342.47;4996696;28;20046;-85
2023/08/04 11:54:57;;;;;;;34.22;31.58;;;;;;;40.84;33.59;100347.28;4995063;28;20042;-85
2023/08/04 11:57:24;;;;;;;33.15;30.65;;;;;;;40.25;34.78;100352.09;4992806;28;20101;-85
2023/08/04 11:59:52;;;;;;;33.08;30.38;;;;;;;40.01;34.67;100351.19;5000144;28;20050;-84
2023/08/04 12:02:19;;;;;;;46.42;42.92;;;;;;;39.48;35.64;100341.44;4996316;28;20046;-85
2023/08/04 12:04:46;;;;;;;39.15;35.97;;;;;;;39.51;36.43;100348.16;4994414;28;20084;-85
2023/08/04 12:07:15;;;;;;;40.85;37.63;;;;;;;39.30;36.77;100338.06;4993872;28;20439;-85
2023/08/04 12:09:46;;;;;;;41.80;38.70;;;;;;;39.10;36.31;100341.41;4994658;28;20508;-85
2023/08/04 12:12:14;;;;;;;40.10;36.92;;;;;;;38.96;35.54;100341.50;4995950;28;20086;-85
2023/08/04 12:14:41;;;;;;;31.58;28.90;;;;;;;39.01;35.79;100341.09;4997751;28;20111;-85
2023/08/04 12:17:08;;;;;;;32.85;30.25;;;;;;;38.21;42.07;100330.84;4996759;28;20050;-84
2023/08/04 12:19:34;;;;;;;36.63;33.88;;;;;;;35.06;74.19;100327.44;4996152;28;20077;-85
2023/08/04 12:22:04;;;;;;;43.55;40.47;;;;;;;35.07;65.53;100317.97;4995247;28;20065;-85
2023/08/04 12:24:32;;;;;;;45.75;42.55;;;;;;;38.23;44.85;100331.25;4999497;28;20042;-85
2023/08/04 12:26:59;;;;;;;43.25;40.25;;;;;;;38.21;40.59;100322.53;4992661;28;20478;-84
2023/08/04 12:29:27;;;;;;;49.00;45.53;;;;;;;38.12;42.70;100331.28;4993760;28;20085;-84
2023/08/04 12:31:54;;;;;;;46.38;43.08;;;;;;;38.20;41.77;100337.59;4995443;28;20556;-85
2023/08/04 12:34:21;;;;;;;41.10;38.20;;;;;;;37.78;43.94;100331.00;4994608;28;20700;-85
2023/08/04 12:36:47;;;;;;;42.72;39.63;;;;;;;38.01;41.23;100327.78;4995816;28;20046;-84
2023/08/04 12:39:14;;;;;;;40.85;37.90;;;;;;;37.78;42.76;100312.41;4993521;28;20061;-86
2023/08/04 12:41:57;;;;;;;40.95;38.05;;;;;;;37.87;43.29;100323.06;5003513;28;20042;-89
2023/08/04 12:44:24;;;;;;;30.10;27.70;;;;;;;37.90;44.59;100322.25;4995381;28;20054;-88
2023/08/04 12:46:52;;;;;;;36.42;33.60;;;;;;;37.72;44.51;100318.75;4988919;28;20050;-85
2023/08/04 12:49:19;;;;;;;34.25;31.52;;;;;;;37.55;45.15;100309.31;4978419;28;20051;-86
2023/08/04 12:51:46;;;;;;;31.83;29.30;;;;;;;37.66;43.45;100309.28;4985684;28;20046;-84
2023/08/04 12:54:14;;;;;;;47.13;43.90;;;;;;;37.89;42.14;100322.66;4979004;28;20523;-85
2023/08/04 12:56:41;;;;;;;45.80;42.88;;;;;;;37.44;48.49;100303.78;4981900;28;20061;-85
2023/08/04 12:59:10;;;;;;;42.45;39.65;;;;;;;37.84;43.01;100312.00;4976496;28;20050;-86
2023/08/04 13:01:37;;;;;;;33.25;30.55;;;;;;;37.97;40.95;100319.47;4981206;28;20050;-85
2023/08/04 13:04:06;;;;;;;34.85;32.25;;;;;;;37.91;42.13;100320.25;4984768;28;20089;-85
2023/08/04 13:06:33;;;;;;;37.97;35.35;;;;;;;37.88;42.21;100310.00;4979559;28;20452;-84
2023/08/04 13:09:00;;;;;;;43.85;40.92;;;;;;;37.01;53.04;100311.31;4981753;28;20047;-84
2023/08/04 13:11:27;;;;;;;35.08;32.38;;;;;;;37.50;47.45;100306.97;4980602;28;20133;-85
2023/08/04 13:13:53;;;;;;;32.75;30.20;;;;;;;37.93;44.82;100304.84;4983115;28;20069;-84
2023/08/04 13:16:20;;;;;;;32.60;30.00;;;;;;;38.92;39.56;100299.13;4995962;28;20052;-85
2023/08/04 13:18:51;;;;;;;33.05;30.40;;;;;;;38.93;38.99;100290.38;4992640;28;20133;-85
2023/08/04 13:21:20;;;;;;;32.57;29.97;;;;;;;38.96;38.48;100288.78;4996459;28;20054;-85
2023/08/04 13:23:48;;;;;;;41.17;38.38;;;;;;;38.61;44.56;100295.38;4992690;28;20049;-84
2023/08/04 13:26:15;;;;;;;35.42;32.85;;;;;;;38.87;38.82;100297.56;4993983;28;20049;-85
2023/08/04 13:28:42;;;;;;;37.80;35.05;;;;;;;38.93;42.64;100295.94;4995247;28;20037;-85
2023/08/04 13:31:12;;;;;;;37.53;34.92;;;;;;;35.71;66.12;100296.34;4996947;28;20046;-84
2023/08/04 13:33:38;;;;;;;38.08;35.38;;;;;;;37.47;58.45;100283.63;4992827;28;20038;-85
2023/08/04 13:36:05;;;;;;;31.73;29.02;;;;;;;38.85;40.15;100283.31;4997964;28;20430;-85
2023/08/04 13:38:34;;;;;;;30.88;28.30;;;;;;;39.45;38.44;100280.38;4992967;28;20054;-89
2023/08/04 13:41:01;;;;;;;30.88;28.17;;;;;;;39.89;35.77;100278.69;4990237;28;20053;-84
2023/08/04 13:43:28;;;;;;;32.33;29.63;;;;;;;39.47;37.33;100280.75;4990587;28;20060;-85
2023/08/04 13:45:55;;;;;;;31.67;29.15;;;;;;;39.83;34.79;100276.38;4992428;28;20060;-84
2023/08/04 13:48:22;;;;;;;41.83;38.92;;;;;;;39.48;35.42;100283.09;4987735;28;20048;-84
2023/08/04 13:50:49;;;;;;;44.13;41.13;;;;;;;38.44;40.81;100274.91;4991099;28;20097;-84
2023/08/04 13:53:16;;;;;;;43.67;40.40;;;;;;;36.51;64.62;100265.06;4989778;28;20046;-84
2023/08/04 13:59:06;;;;;;;46.08;43.00;;;;;;;38.79;44.64;100262.72;4998359;28;20041;-83
2023/08/04 14:01:33;;;;;;;42.13;39.03;;;;;;;37.71;46.16;100273.66;4991254;28;20409;-84
2023/08/04 14:04:00;;;;;;;42.67;39.78;;;;;;;38.93;37.33;100264.63;4994951;28;20043;-83
2023/08/04 14:06:46;;;;;;;39.80;37.00;;;;;;;39.33;35.81;100263.03;4994174;28;20050;-84
2023/08/04 14:09:13;;;;;;;41.67;38.22;;;;;;;38.29;42.44;100273.38;4993682;28;20136;-84
2023/08/04 14:11:40;;;;;;;41.17;38.28;;;;;;;39.12;37.21;100258.47;4985551;28;20505;-84
2023/08/04 14:14:08;;;;;;;41.67;38.78;;;;;;;39.67;36.59;100261.47;4986231;28;20049;-85